sensor_id;sensor_type;location;lat;lon;timestamp;P1;durP1;ratioP1;P2;durP2;ratioP2
32321;SDS011;61553;48.994;8.940;2022-09-14T00:00:29;8.60;;;3.45;;
32321;SDS011;61553;48.994;8.940;2022-09-14T00:02:55;6.07;;;3.85;;
32321;SDS011;61553;48.994;8.940;2022-09-14T00:05:21;6.70;;;3.45;;
32321;SDS011;61553;48.994;8.940;2022-09-14T00:07:47;5.57;;;3.65;;
32321;SDS011;61553;48.994;8.940;2022-09-14T00:10:12;4.88;;;3.10;;
32321;SDS011;61553;48.994;8.940;2022-09-14T00:12:38;7.25;;;3.90;;
32321;SDS011;61553;48.994;8.940;2022-09-14T00:15:04;6.78;;;3.58;;
32321;SDS011;61553;48.994;8.940;2022-09-14T00:17:32;6.13;;;3.40;;
32321;SDS011;61553;48.994;8.940;2022-09-14T00:19:57;8.05;;;3.53;;
32321;SDS011;61553;48.994;8.940;2022-09-14T00:22:23;5.72;;;2.88;;
32321;SDS011;61553;48.994;8.940;2022-09-14T00:24:49;6.15;;;3.20;;
32321;SDS011;61553;48.994;8.940;2022-09-14T00:27:15;5.60;;;2.90;;
32321;SDS011;61553;48.994;8.940;2022-09-14T00:29:40;4.20;;;2.70;;
32321;SDS011;61553;48.994;8.940;2022-09-14T00:32:06;6.38;;;3.22;;
32321;SDS011;61553;48.994;8.940;2022-09-14T00:34:32;6.00;;;3.53;;
32321;SDS011;61553;48.994;8.940;2022-09-14T00:36:58;5.35;;;3.28;;
32321;SDS011;61553;48.994;8.940;2022-09-14T00:39:24;4.88;;;3.08;;
32321;SDS011;61553;48.994;8.940;2022-09-14T00:41:50;5.50;;;2.80;;
32321;SDS011;61553;48.994;8.940;2022-09-14T00:46:47;6.18;;;2.90;;
32321;SDS011;61553;48.994;8.940;2022-09-14T00:49:24;4.82;;;2.80;;
32321;SDS011;61553;48.994;8.940;2022-09-14T00:54:20;5.88;;;2.80;;
32321;SDS011;61553;48.994;8.940;2022-09-14T00:56:46;6.00;;;2.95;;
32321;SDS011;61553;48.994;8.940;2022-09-14T00:59:21;5.07;;;2.85;;
32321;SDS011;61553;48.994;8.940;2022-09-14T01:01:49;6.18;;;2.75;;
32321;SDS011;61553;48.994;8.940;2022-09-14T01:04:15;5.03;;;2.80;;
32321;SDS011;61553;48.994;8.940;2022-09-14T01:15:25;6.65;;;2.83;;
32321;SDS011;61553;48.994;8.940;2022-09-14T01:18:28;5.38;;;2.47;;
32321;SDS011;61553;48.994;8.940;2022-09-14T01:21:13;4.47;;;2.78;;
32321;SDS011;61553;48.994;8.940;2022-09-14T01:32:14;5.20;;;3.03;;
32321;SDS011;61553;48.994;8.940;2022-09-14T01:34:45;3.85;;;2.60;;
32321;SDS011;61553;48.994;8.940;2022-09-14T01:37:37;7.53;;;3.28;;
32321;SDS011;61553;48.994;8.940;2022-09-14T01:42:48;5.95;;;3.42;;
32321;SDS011;61553;48.994;8.940;2022-09-14T01:45:16;6.40;;;3.47;;
32321;SDS011;61553;48.994;8.940;2022-09-14T01:47:46;7.43;;;3.70;;
32321;SDS011;61553;48.994;8.940;2022-09-14T01:53:00;12.93;;;5.20;;
32321;SDS011;61553;48.994;8.940;2022-09-14T01:55:48;12.65;;;6.10;;
32321;SDS011;61553;48.994;8.940;2022-09-14T01:58:35;9.10;;;4.43;;
32321;SDS011;61553;48.994;8.940;2022-09-14T02:01:34;5.55;;;3.60;;
32321;SDS011;61553;48.994;8.940;2022-09-14T02:04:13;13.52;;;5.97;;
32321;SDS011;61553;48.994;8.940;2022-09-14T02:06:46;10.50;;;4.70;;
32321;SDS011;61553;48.994;8.940;2022-09-14T02:09:15;7.97;;;4.38;;
32321;SDS011;61553;48.994;8.940;2022-09-14T02:11:43;9.32;;;5.13;;
32321;SDS011;61553;48.994;8.940;2022-09-14T02:14:10;8.15;;;4.68;;
32321;SDS011;61553;48.994;8.940;2022-09-14T02:16:36;13.70;;;5.32;;
32321;SDS011;61553;48.994;8.940;2022-09-14T02:19:03;11.23;;;5.80;;
32321;SDS011;61553;48.994;8.940;2022-09-14T02:21:30;9.15;;;4.60;;
32321;SDS011;61553;48.994;8.940;2022-09-14T02:23:59;8.63;;;5.43;;
32321;SDS011;61553;48.994;8.940;2022-09-14T02:26:26;10.20;;;5.40;;
32321;SDS011;61553;48.994;8.940;2022-09-14T02:28:53;10.43;;;5.45;;
32321;SDS011;61553;48.994;8.940;2022-09-14T02:37:54;13.80;;;5.70;;
32321;SDS011;61553;48.994;8.940;2022-09-14T02:40:37;13.68;;;6.20;;
32321;SDS011;61553;48.994;8.940;2022-09-14T02:54:10;9.32;;;5.65;;
32321;SDS011;61553;48.994;8.940;2022-09-14T02:56:40;11.30;;;6.18;;
32321;SDS011;61553;48.994;8.940;2022-09-14T02:59:06;10.98;;;6.45;;
32321;SDS011;61553;48.994;8.940;2022-09-14T03:01:32;11.98;;;5.60;;
32321;SDS011;61553;48.994;8.940;2022-09-14T03:03:58;8.90;;;5.85;;
32321;SDS011;61553;48.994;8.940;2022-09-14T03:06:24;12.60;;;7.28;;
32321;SDS011;61553;48.994;8.940;2022-09-14T03:08:49;8.65;;;6.10;;
32321;SDS011;61553;48.994;8.940;2022-09-14T03:11:15;11.05;;;6.57;;
32321;SDS011;61553;48.994;8.940;2022-09-14T03:13:41;17.27;;;7.13;;
32321;SDS011;61553;48.994;8.940;2022-09-14T03:16:08;14.57;;;7.00;;
32321;SDS011;61553;48.994;8.940;2022-09-14T03:18:35;9.38;;;7.05;;
32321;SDS011;61553;48.994;8.940;2022-09-14T03:21:03;11.90;;;7.18;;
32321;SDS011;61553;48.994;8.940;2022-09-14T03:23:30;14.07;;;7.90;;
32321;SDS011;61553;48.994;8.940;2022-09-14T03:25:59;12.60;;;7.60;;
32321;SDS011;61553;48.994;8.940;2022-09-14T03:28:25;14.50;;;8.02;;
32321;SDS011;61553;48.994;8.940;2022-09-14T03:30:50;9.88;;;7.15;;
32321;SDS011;61553;48.994;8.940;2022-09-14T03:33:16;12.98;;;8.30;;
32321;SDS011;61553;48.994;8.940;2022-09-14T03:35:42;10.88;;;7.32;;
32321;SDS011;61553;48.994;8.940;2022-09-14T03:38:08;12.32;;;7.63;;
32321;SDS011;61553;48.994;8.940;2022-09-14T03:40:33;16.00;;;8.45;;
32321;SDS011;61553;48.994;8.940;2022-09-14T03:42:59;13.98;;;8.30;;
32321;SDS011;61553;48.994;8.940;2022-09-14T03:45:25;14.00;;;8.80;;
32321;SDS011;61553;48.994;8.940;2022-09-14T03:47:50;13.45;;;8.32;;
32321;SDS011;61553;48.994;8.940;2022-09-14T03:50:17;16.55;;;8.73;;
32321;SDS011;61553;48.994;8.940;2022-09-14T03:52:43;16.15;;;9.15;;
32321;SDS011;61553;48.994;8.940;2022-09-14T03:55:09;12.68;;;8.55;;
32321;SDS011;61553;48.994;8.940;2022-09-14T03:57:35;13.70;;;8.35;;
32321;SDS011;61553;48.994;8.940;2022-09-14T04:00:02;12.00;;;9.07;;
32321;SDS011;61553;48.994;8.940;2022-09-14T04:02:29;12.40;;;8.68;;
32321;SDS011;61553;48.994;8.940;2022-09-14T04:04:55;14.02;;;9.65;;
32321;SDS011;61553;48.994;8.940;2022-09-14T04:07:20;17.20;;;10.60;;
32321;SDS011;61553;48.994;8.940;2022-09-14T04:09:46;15.13;;;10.85;;
32321;SDS011;61553;48.994;8.940;2022-09-14T04:12:12;15.82;;;10.63;;
32321;SDS011;61553;48.994;8.940;2022-09-14T04:14:37;13.38;;;10.05;;
32321;SDS011;61553;48.994;8.940;2022-09-14T04:17:03;13.82;;;10.07;;
32321;SDS011;61553;48.994;8.940;2022-09-14T04:19:29;15.75;;;10.77;;
32321;SDS011;61553;48.994;8.940;2022-09-14T04:21:55;15.88;;;11.95;;
32321;SDS011;61553;48.994;8.940;2022-09-14T04:24:20;16.42;;;11.23;;
32321;SDS011;61553;48.994;8.940;2022-09-14T04:26:46;13.10;;;11.35;;
32321;SDS011;61553;48.994;8.940;2022-09-14T04:29:12;13.98;;;11.05;;
32321;SDS011;61553;48.994;8.940;2022-09-14T04:31:38;17.85;;;14.02;;
32321;SDS011;61553;48.994;8.940;2022-09-14T04:34:04;19.45;;;14.18;;
32321;SDS011;61553;48.994;8.940;2022-09-14T04:36:30;20.15;;;13.30;;
32321;SDS011;61553;48.994;8.940;2022-09-14T04:38:57;20.98;;;13.35;;
32321;SDS011;61553;48.994;8.940;2022-09-14T04:41:24;17.90;;;12.15;;
32321;SDS011;61553;48.994;8.940;2022-09-14T04:43:51;17.48;;;12.48;;
32321;SDS011;61553;48.994;8.940;2022-09-14T04:46:19;18.85;;;13.75;;
32321;SDS011;61553;48.994;8.940;2022-09-14T04:48:50;18.73;;;12.88;;
32321;SDS011;61553;48.994;8.940;2022-09-14T04:51:17;19.48;;;13.10;;
32321;SDS011;61553;48.994;8.940;2022-09-14T04:53:49;18.05;;;13.23;;
32321;SDS011;61553;48.994;8.940;2022-09-14T04:56:16;15.82;;;11.55;;
32321;SDS011;61553;48.994;8.940;2022-09-14T04:58:43;18.85;;;12.25;;
32321;SDS011;61553;48.994;8.940;2022-09-14T05:01:14;18.70;;;13.05;;
32321;SDS011;61553;48.994;8.940;2022-09-14T05:03:44;19.70;;;14.27;;
32321;SDS011;61553;48.994;8.940;2022-09-14T05:06:11;17.30;;;12.65;;
32321;SDS011;61553;48.994;8.940;2022-09-14T05:08:41;19.08;;;14.90;;
32321;SDS011;61553;48.994;8.940;2022-09-14T05:11:08;20.80;;;15.77;;
32321;SDS011;61553;48.994;8.940;2022-09-14T05:13:37;24.00;;;15.40;;
32321;SDS011;61553;48.994;8.940;2022-09-14T05:16:04;20.15;;;15.00;;
32321;SDS011;61553;48.994;8.940;2022-09-14T05:18:34;21.52;;;14.20;;
32321;SDS011;61553;48.994;8.940;2022-09-14T05:21:01;20.10;;;13.35;;
32321;SDS011;61553;48.994;8.940;2022-09-14T05:23:30;18.88;;;14.57;;
32321;SDS011;61553;48.994;8.940;2022-09-14T05:25:57;16.30;;;12.43;;
32321;SDS011;61553;48.994;8.940;2022-09-14T05:28:23;17.63;;;12.93;;
32321;SDS011;61553;48.994;8.940;2022-09-14T05:30:49;19.63;;;15.95;;
32321;SDS011;61553;48.994;8.940;2022-09-14T05:33:15;17.52;;;14.45;;
32321;SDS011;61553;48.994;8.940;2022-09-14T05:35:40;17.23;;;14.43;;
32321;SDS011;61553;48.994;8.940;2022-09-14T05:38:06;17.25;;;14.15;;
32321;SDS011;61553;48.994;8.940;2022-09-14T05:40:32;16.17;;;13.70;;
32321;SDS011;61553;48.994;8.940;2022-09-14T05:42:57;18.50;;;12.95;;
32321;SDS011;61553;48.994;8.940;2022-09-14T05:45:23;21.42;;;14.57;;
32321;SDS011;61553;48.994;8.940;2022-09-14T05:47:49;21.20;;;13.80;;
32321;SDS011;61553;48.994;8.940;2022-09-14T05:50:14;16.98;;;13.25;;
32321;SDS011;61553;48.994;8.940;2022-09-14T05:52:40;15.73;;;11.70;;
32321;SDS011;61553;48.994;8.940;2022-09-14T05:55:06;19.75;;;13.50;;
32321;SDS011;61553;48.994;8.940;2022-09-14T05:57:32;18.58;;;13.32;;
32321;SDS011;61553;48.994;8.940;2022-09-14T05:59:58;17.23;;;13.93;;
32321;SDS011;61553;48.994;8.940;2022-09-14T06:02:23;17.60;;;13.85;;
32321;SDS011;61553;48.994;8.940;2022-09-14T06:04:49;14.60;;;12.25;;
32321;SDS011;61553;48.994;8.940;2022-09-14T06:07:15;17.25;;;12.80;;
32321;SDS011;61553;48.994;8.940;2022-09-14T06:09:41;15.00;;;12.88;;
32321;SDS011;61553;48.994;8.940;2022-09-14T06:12:06;20.40;;;13.57;;
32321;SDS011;61553;48.994;8.940;2022-09-14T06:14:32;17.95;;;12.48;;
32321;SDS011;61553;48.994;8.940;2022-09-14T06:16:58;17.45;;;13.60;;
32321;SDS011;61553;48.994;8.940;2022-09-14T06:19:24;15.05;;;12.57;;
32321;SDS011;61553;48.994;8.940;2022-09-14T06:21:50;17.27;;;11.50;;
32321;SDS011;61553;48.994;8.940;2022-09-14T06:24:16;19.10;;;13.43;;
32321;SDS011;61553;48.994;8.940;2022-09-14T06:26:41;16.23;;;11.95;;
32321;SDS011;61553;48.994;8.940;2022-09-14T06:29:07;14.45;;;10.05;;
32321;SDS011;61553;48.994;8.940;2022-09-14T06:31:32;12.77;;;8.77;;
32321;SDS011;61553;48.994;8.940;2022-09-14T06:33:58;14.10;;;9.05;;
32321;SDS011;61553;48.994;8.940;2022-09-14T06:36:24;11.70;;;7.90;;
32321;SDS011;61553;48.994;8.940;2022-09-14T06:38:51;10.23;;;7.22;;
32321;SDS011;61553;48.994;8.940;2022-09-14T06:41:19;8.55;;;7.28;;
32321;SDS011;61553;48.994;8.940;2022-09-14T06:43:47;8.38;;;6.88;;
32321;SDS011;61553;48.994;8.940;2022-09-14T06:49:16;7.03;;;4.95;;
32321;SDS011;61553;48.994;8.940;2022-09-14T06:54:05;8.88;;;5.15;;
32321;SDS011;61553;48.994;8.940;2022-09-14T06:56:35;8.77;;;4.97;;
32321;SDS011;61553;48.994;8.940;2022-09-14T06:59:03;6.65;;;4.00;;
32321;SDS011;61553;48.994;8.940;2022-09-14T07:01:29;6.82;;;3.88;;
32321;SDS011;61553;48.994;8.940;2022-09-14T07:03:55;5.95;;;3.35;;
32321;SDS011;61553;48.994;8.940;2022-09-14T07:06:23;8.02;;;3.22;;
32321;SDS011;61553;48.994;8.940;2022-09-14T07:08:50;7.10;;;2.92;;
32321;SDS011;61553;48.994;8.940;2022-09-14T07:11:17;4.63;;;3.10;;
32321;SDS011;61553;48.994;8.940;2022-09-14T07:13:44;4.75;;;3.05;;
32321;SDS011;61553;48.994;8.940;2022-09-14T07:16:11;4.55;;;2.95;;
32321;SDS011;61553;48.994;8.940;2022-09-14T07:18:38;5.55;;;2.78;;
32321;SDS011;61553;48.994;8.940;2022-09-14T07:21:05;4.95;;;2.78;;
32321;SDS011;61553;48.994;8.940;2022-09-14T07:23:41;5.22;;;2.70;;
32321;SDS011;61553;48.994;8.940;2022-09-14T07:26:12;8.02;;;2.70;;
32321;SDS011;61553;48.994;8.940;2022-09-14T07:28:38;5.28;;;3.05;;
32321;SDS011;61553;48.994;8.940;2022-09-14T07:31:12;7.32;;;3.30;;
32321;SDS011;61553;48.994;8.940;2022-09-14T07:33:40;6.03;;;3.13;;
32321;SDS011;61553;48.994;8.940;2022-09-14T07:36:06;7.50;;;3.38;;
32321;SDS011;61553;48.994;8.940;2022-09-14T07:38:33;7.13;;;3.28;;
32321;SDS011;61553;48.994;8.940;2022-09-14T07:40:59;6.30;;;3.40;;
32321;SDS011;61553;48.994;8.940;2022-09-14T07:43:25;8.40;;;3.47;;
32321;SDS011;61553;48.994;8.940;2022-09-14T07:45:51;7.15;;;3.30;;
32321;SDS011;61553;48.994;8.940;2022-09-14T07:48:16;6.95;;;3.90;;
32321;SDS011;61553;48.994;8.940;2022-09-14T07:50:42;6.30;;;3.20;;
32321;SDS011;61553;48.994;8.940;2022-09-14T07:53:07;4.78;;;3.28;;
32321;SDS011;61553;48.994;8.940;2022-09-14T07:55:36;6.65;;;3.40;;
32321;SDS011;61553;48.994;8.940;2022-09-14T07:58:03;6.30;;;3.30;;
32321;SDS011;61553;48.994;8.940;2022-09-14T08:00:28;7.43;;;3.45;;
32321;SDS011;61553;48.994;8.940;2022-09-14T08:02:54;5.50;;;3.60;;
32321;SDS011;61553;48.994;8.940;2022-09-14T08:05:22;4.95;;;3.05;;
32321;SDS011;61553;48.994;8.940;2022-09-14T08:07:52;5.93;;;3.13;;
32321;SDS011;61553;48.994;8.940;2022-09-14T08:10:19;5.13;;;3.10;;
32321;SDS011;61553;48.994;8.940;2022-09-14T08:12:48;7.05;;;3.60;;
32321;SDS011;61553;48.994;8.940;2022-09-14T08:15:15;5.15;;;2.95;;
32321;SDS011;61553;48.994;8.940;2022-09-14T08:17:40;8.60;;;3.22;;
32321;SDS011;61553;48.994;8.940;2022-09-14T08:20:06;5.13;;;3.22;;
32321;SDS011;61553;48.994;8.940;2022-09-14T08:22:32;6.15;;;3.17;;
32321;SDS011;61553;48.994;8.940;2022-09-14T08:24:57;6.57;;;3.20;;
32321;SDS011;61553;48.994;8.940;2022-09-14T08:27:23;5.38;;;3.20;;
32321;SDS011;61553;48.994;8.940;2022-09-14T08:29:48;6.13;;;3.10;;
32321;SDS011;61553;48.994;8.940;2022-09-14T08:32:14;6.95;;;3.03;;
32321;SDS011;61553;48.994;8.940;2022-09-14T08:34:40;5.32;;;2.70;;
32321;SDS011;61553;48.994;8.940;2022-09-14T08:37:05;4.97;;;2.58;;
32321;SDS011;61553;48.994;8.940;2022-09-14T08:39:31;6.20;;;2.85;;
32321;SDS011;61553;48.994;8.940;2022-09-14T08:41:57;5.78;;;2.97;;
32321;SDS011;61553;48.994;8.940;2022-09-14T08:47:03;7.47;;;2.53;;
32321;SDS011;61553;48.994;8.940;2022-09-14T08:54:48;6.90;;;1.85;;
32321;SDS011;61553;48.994;8.940;2022-09-14T08:57:19;6.05;;;1.60;;
32321;SDS011;61553;48.994;8.940;2022-09-14T09:00:02;6.85;;;2.03;;
32321;SDS011;61553;48.994;8.940;2022-09-14T09:02:32;5.53;;;1.98;;
32321;SDS011;61553;48.994;8.940;2022-09-14T09:10:14;6.28;;;2.45;;
32321;SDS011;61553;48.994;8.940;2022-09-14T09:12:42;6.22;;;1.92;;
32321;SDS011;61553;48.994;8.940;2022-09-14T09:17:41;6.07;;;1.98;;
32321;SDS011;61553;48.994;8.940;2022-09-14T09:20:28;5.57;;;1.45;;
32321;SDS011;61553;48.994;8.940;2022-09-14T09:23:05;4.63;;;1.70;;
32321;SDS011;61553;48.994;8.940;2022-09-14T09:25:57;5.28;;;1.70;;
32321;SDS011;61553;48.994;8.940;2022-09-14T09:28:34;4.38;;;1.75;;
32321;SDS011;61553;48.994;8.940;2022-09-14T09:31:06;5.75;;;1.70;;
32321;SDS011;61553;48.994;8.940;2022-09-14T09:33:35;4.63;;;1.48;;
32321;SDS011;61553;48.994;8.940;2022-09-14T09:36:01;5.68;;;1.60;;
32321;SDS011;61553;48.994;8.940;2022-09-14T09:38:27;4.18;;;1.48;;
32321;SDS011;61553;48.994;8.940;2022-09-14T09:40:54;4.97;;;2.15;;
32321;SDS011;61553;48.994;8.940;2022-09-14T09:43:31;6.00;;;2.47;;
32321;SDS011;61553;48.994;8.940;2022-09-14T09:46:00;5.93;;;2.00;;
32321;SDS011;61553;48.994;8.940;2022-09-14T09:48:38;7.45;;;2.10;;
32321;SDS011;61553;48.994;8.940;2022-09-14T09:51:17;7.50;;;1.92;;
32321;SDS011;61553;48.994;8.940;2022-09-14T09:56:39;6.47;;;1.95;;
32321;SDS011;61553;48.994;8.940;2022-09-14T10:01:47;6.68;;;1.90;;
32321;SDS011;61553;48.994;8.940;2022-09-14T10:04:17;5.43;;;1.95;;
32321;SDS011;61553;48.994;8.940;2022-09-14T10:06:49;4.45;;;2.00;;
32321;SDS011;61553;48.994;8.940;2022-09-14T10:11:44;4.82;;;1.90;;
32321;SDS011;61553;48.994;8.940;2022-09-14T10:14:24;4.35;;;1.90;;
32321;SDS011;61553;48.994;8.940;2022-09-14T10:16:53;6.18;;;2.00;;
32321;SDS011;61553;48.994;8.940;2022-09-14T10:19:39;4.88;;;1.95;;
32321;SDS011;61553;48.994;8.940;2022-09-14T10:22:26;5.22;;;2.00;;
32321;SDS011;61553;48.994;8.940;2022-09-14T10:25:00;5.57;;;1.98;;
32321;SDS011;61553;48.994;8.940;2022-09-14T10:29:57;5.85;;;2.03;;
32321;SDS011;61553;48.994;8.940;2022-09-14T10:32:26;8.98;;;2.42;;
32321;SDS011;61553;48.994;8.940;2022-09-14T10:34:55;4.72;;;1.90;;
32321;SDS011;61553;48.994;8.940;2022-09-14T10:40:18;5.13;;;2.00;;
32321;SDS011;61553;48.994;8.940;2022-09-14T10:45:52;7.07;;;1.85;;
32321;SDS011;61553;48.994;8.940;2022-09-14T10:56:43;5.07;;;1.65;;
32321;SDS011;61553;48.994;8.940;2022-09-14T11:10:22;4.40;;;2.00;;
32321;SDS011;61553;48.994;8.940;2022-09-14T11:26:26;4.53;;;1.35;;
32321;SDS011;61553;48.994;8.940;2022-09-14T11:31:51;7.25;;;1.88;;
32321;SDS011;61553;48.994;8.940;2022-09-14T11:34:21;4.05;;;1.70;;
32321;SDS011;61553;48.994;8.940;2022-09-14T11:37:04;6.90;;;1.88;;
32321;SDS011;61553;48.994;8.940;2022-09-14T11:39:40;5.88;;;1.90;;
32321;SDS011;61553;48.994;8.940;2022-09-14T11:42:31;6.55;;;1.88;;
32321;SDS011;61553;48.994;8.940;2022-09-14T11:45:02;6.97;;;2.00;;
32321;SDS011;61553;48.994;8.940;2022-09-14T11:47:34;7.13;;;1.67;;
32321;SDS011;61553;48.994;8.940;2022-09-14T11:52:47;5.80;;;1.90;;
32321;SDS011;61553;48.994;8.940;2022-09-14T11:55:34;4.22;;;1.48;;
32321;SDS011;61553;48.994;8.940;2022-09-14T11:58:02;6.10;;;1.80;;
32321;SDS011;61553;48.994;8.940;2022-09-14T12:03:44;4.32;;;1.75;;
32321;SDS011;61553;48.994;8.940;2022-09-14T12:06:40;4.25;;;1.83;;
32321;SDS011;61553;48.994;8.940;2022-09-14T12:11:48;8.77;;;2.22;;
32321;SDS011;61553;48.994;8.940;2022-09-14T12:17:03;6.35;;;2.03;;
32321;SDS011;61553;48.994;8.940;2022-09-14T12:19:36;4.78;;;1.63;;
32321;SDS011;61553;48.994;8.940;2022-09-14T12:24:42;4.60;;;2.17;;
32321;SDS011;61553;48.994;8.940;2022-09-14T12:27:18;6.68;;;1.85;;
32321;SDS011;61553;48.994;8.940;2022-09-14T12:29:46;5.60;;;1.67;;
32321;SDS011;61553;48.994;8.940;2022-09-14T12:32:37;5.80;;;2.20;;
32321;SDS011;61553;48.994;8.940;2022-09-14T12:37:58;5.57;;;2.00;;
32321;SDS011;61553;48.994;8.940;2022-09-14T12:40:44;6.28;;;2.15;;
32321;SDS011;61553;48.994;8.940;2022-09-14T12:43:36;5.97;;;1.92;;
32321;SDS011;61553;48.994;8.940;2022-09-14T12:46:08;3.67;;;1.50;;
32321;SDS011;61553;48.994;8.940;2022-09-14T12:59:12;7.05;;;2.38;;
32321;SDS011;61553;48.994;8.940;2022-09-14T13:04:36;11.00;;;2.67;;
32321;SDS011;61553;48.994;8.940;2022-09-14T13:07:04;8.52;;;2.40;;
32321;SDS011;61553;48.994;8.940;2022-09-14T13:09:37;7.93;;;2.70;;
32321;SDS011;61553;48.994;8.940;2022-09-14T13:12:09;10.70;;;2.63;;
32321;SDS011;61553;48.994;8.940;2022-09-14T13:14:44;11.63;;;2.38;;
32321;SDS011;61553;48.994;8.940;2022-09-14T13:17:13;4.70;;;1.73;;
32321;SDS011;61553;48.994;8.940;2022-09-14T13:19:40;6.90;;;1.83;;
32321;SDS011;61553;48.994;8.940;2022-09-14T13:22:17;4.78;;;1.92;;
32321;SDS011;61553;48.994;8.940;2022-09-14T13:24:45;3.78;;;1.60;;
32321;SDS011;61553;48.994;8.940;2022-09-14T13:29:47;8.48;;;2.30;;
32321;SDS011;61553;48.994;8.940;2022-09-14T13:32:20;5.25;;;2.25;;
32321;SDS011;61553;48.994;8.940;2022-09-14T13:34:46;6.35;;;2.20;;
32321;SDS011;61553;48.994;8.940;2022-09-14T13:37:13;5.95;;;2.40;;
32321;SDS011;61553;48.994;8.940;2022-09-14T13:39:39;5.93;;;2.40;;
32321;SDS011;61553;48.994;8.940;2022-09-14T13:42:06;7.07;;;2.22;;
32321;SDS011;61553;48.994;8.940;2022-09-14T13:44:42;4.80;;;2.65;;
32321;SDS011;61553;48.994;8.940;2022-09-14T13:47:11;7.35;;;2.13;;
32321;SDS011;61553;48.994;8.940;2022-09-14T13:49:39;7.05;;;2.13;;
32321;SDS011;61553;48.994;8.940;2022-09-14T13:52:18;6.25;;;2.03;;
32321;SDS011;61553;48.994;8.940;2022-09-14T13:54:54;5.63;;;2.50;;
32321;SDS011;61553;48.994;8.940;2022-09-14T13:57:32;4.75;;;1.80;;
32321;SDS011;61553;48.994;8.940;2022-09-14T14:02:44;4.25;;;2.10;;
32321;SDS011;61553;48.994;8.940;2022-09-14T14:05:20;7.45;;;3.00;;
32321;SDS011;61553;48.994;8.940;2022-09-14T14:08:19;3.33;;;1.73;;
32321;SDS011;61553;48.994;8.940;2022-09-14T14:10:56;5.53;;;2.38;;
32321;SDS011;61553;48.994;8.940;2022-09-14T14:13:24;5.82;;;1.92;;
32321;SDS011;61553;48.994;8.940;2022-09-14T14:16:17;5.95;;;1.80;;
32321;SDS011;61553;48.994;8.940;2022-09-14T14:18:53;4.28;;;2.00;;
32321;SDS011;61553;48.994;8.940;2022-09-14T14:26:55;3.67;;;1.77;;
32321;SDS011;61553;48.994;8.940;2022-09-14T14:29:22;5.63;;;1.98;;
32321;SDS011;61553;48.994;8.940;2022-09-14T14:31:49;5.97;;;1.90;;
32321;SDS011;61553;48.994;8.940;2022-09-14T14:36:48;3.53;;;1.88;;
32321;SDS011;61553;48.994;8.940;2022-09-14T14:39:21;5.07;;;1.58;;
32321;SDS011;61553;48.994;8.940;2022-09-14T14:41:49;6.35;;;1.50;;
32321;SDS011;61553;48.994;8.940;2022-09-14T14:44:19;3.95;;;1.90;;
32321;SDS011;61553;48.994;8.940;2022-09-14T14:46:47;3.70;;;2.08;;
32321;SDS011;61553;48.994;8.940;2022-09-14T14:49:13;2.78;;;1.40;;
32321;SDS011;61553;48.994;8.940;2022-09-14T14:51:41;3.95;;;1.33;;
32321;SDS011;61553;48.994;8.940;2022-09-14T14:54:07;2.40;;;1.73;;
32321;SDS011;61553;48.994;8.940;2022-09-14T14:56:34;2.35;;;1.40;;
32321;SDS011;61553;48.994;8.940;2022-09-14T14:59:13;3.55;;;1.27;;
32321;SDS011;61553;48.994;8.940;2022-09-14T15:01:45;2.25;;;1.30;;
32321;SDS011;61553;48.994;8.940;2022-09-14T15:04:11;3.40;;;1.30;;
32321;SDS011;61553;48.994;8.940;2022-09-14T15:06:37;2.60;;;1.30;;
32321;SDS011;61553;48.994;8.940;2022-09-14T15:09:05;3.78;;;1.60;;
32321;SDS011;61553;48.994;8.940;2022-09-14T15:11:37;3.60;;;1.33;;
32321;SDS011;61553;48.994;8.940;2022-09-14T15:14:05;3.42;;;1.73;;
32321;SDS011;61553;48.994;8.940;2022-09-14T15:16:41;3.58;;;1.10;;
32321;SDS011;61553;48.994;8.940;2022-09-14T15:19:07;3.08;;;1.33;;
32321;SDS011;61553;48.994;8.940;2022-09-14T15:21:34;3.22;;;1.27;;
32321;SDS011;61553;48.994;8.940;2022-09-14T15:24:01;4.53;;;1.30;;
32321;SDS011;61553;48.994;8.940;2022-09-14T15:26:27;2.90;;;1.58;;
32321;SDS011;61553;48.994;8.940;2022-09-14T15:28:52;2.80;;;1.23;;
32321;SDS011;61553;48.994;8.940;2022-09-14T15:31:18;2.58;;;1.23;;
32321;SDS011;61553;48.994;8.940;2022-09-14T15:33:44;3.05;;;1.40;;
32321;SDS011;61553;48.994;8.940;2022-09-14T15:36:10;5.22;;;1.25;;
32321;SDS011;61553;48.994;8.940;2022-09-14T15:38:36;3.08;;;1.13;;
32321;SDS011;61553;48.994;8.940;2022-09-14T15:41:01;7.55;;;1.65;;
32321;SDS011;61553;48.994;8.940;2022-09-14T15:43:27;3.90;;;1.30;;
32321;SDS011;61553;48.994;8.940;2022-09-14T15:45:53;3.97;;;1.30;;
32321;SDS011;61553;48.994;8.940;2022-09-14T15:48:19;3.47;;;1.40;;
32321;SDS011;61553;48.994;8.940;2022-09-14T15:50:45;3.28;;;1.20;;
32321;SDS011;61553;48.994;8.940;2022-09-14T15:53:13;2.60;;;1.20;;
32321;SDS011;61553;48.994;8.940;2022-09-14T15:55:41;7.47;;;1.80;;
32321;SDS011;61553;48.994;8.940;2022-09-14T15:58:08;3.72;;;1.17;;
32321;SDS011;61553;48.994;8.940;2022-09-14T16:00:34;2.40;;;1.30;;
32321;SDS011;61553;48.994;8.940;2022-09-14T16:03:01;2.65;;;1.08;;
32321;SDS011;61553;48.994;8.940;2022-09-14T16:05:27;2.97;;;1.10;;
32321;SDS011;61553;48.994;8.940;2022-09-14T16:07:54;5.38;;;1.23;;
32321;SDS011;61553;48.994;8.940;2022-09-14T16:10:20;3.30;;;1.42;;
32321;SDS011;61553;48.994;8.940;2022-09-14T16:12:48;5.15;;;1.40;;
32321;SDS011;61553;48.994;8.940;2022-09-14T16:15:14;4.18;;;1.52;;
32321;SDS011;61553;48.994;8.940;2022-09-14T16:17:39;5.95;;;1.67;;
32321;SDS011;61553;48.994;8.940;2022-09-14T16:20:05;3.28;;;1.55;;
32321;SDS011;61553;48.994;8.940;2022-09-14T16:22:33;5.38;;;2.80;;
32321;SDS011;61553;48.994;8.940;2022-09-14T16:24:59;6.32;;;4.40;;
32321;SDS011;61553;48.994;8.940;2022-09-14T16:27:25;6.88;;;5.00;;
32321;SDS011;61553;48.994;8.940;2022-09-14T16:29:51;5.70;;;3.47;;
32321;SDS011;61553;48.994;8.940;2022-09-14T16:32:16;5.53;;;3.63;;
32321;SDS011;61553;48.994;8.940;2022-09-14T16:34:42;5.65;;;3.90;;
32321;SDS011;61553;48.994;8.940;2022-09-14T16:37:08;7.45;;;3.20;;
32321;SDS011;61553;48.994;8.940;2022-09-14T16:39:33;5.78;;;2.25;;
32321;SDS011;61553;48.994;8.940;2022-09-14T16:41:59;4.72;;;1.80;;
32321;SDS011;61553;48.994;8.940;2022-09-14T16:44:25;5.13;;;2.60;;
32321;SDS011;61553;48.994;8.940;2022-09-14T16:46:52;5.35;;;2.95;;
32321;SDS011;61553;48.994;8.940;2022-09-14T16:49:19;5.00;;;2.40;;
32321;SDS011;61553;48.994;8.940;2022-09-14T16:51:45;6.88;;;3.20;;
32321;SDS011;61553;48.994;8.940;2022-09-14T16:54:15;4.65;;;2.58;;
32321;SDS011;61553;48.994;8.940;2022-09-14T16:56:42;5.00;;;2.40;;
32321;SDS011;61553;48.994;8.940;2022-09-14T16:59:08;5.55;;;1.90;;
32321;SDS011;61553;48.994;8.940;2022-09-14T17:01:38;9.45;;;1.90;;
32321;SDS011;61553;48.994;8.940;2022-09-14T17:04:06;2.80;;;1.30;;
32321;SDS011;61553;48.994;8.940;2022-09-14T17:06:34;5.55;;;2.25;;
32321;SDS011;61553;48.994;8.940;2022-09-14T17:09:04;3.47;;;2.08;;
32321;SDS011;61553;48.994;8.940;2022-09-14T17:11:32;5.88;;;2.50;;
32321;SDS011;61553;48.994;8.940;2022-09-14T17:13:59;5.32;;;2.92;;
32321;SDS011;61553;48.994;8.940;2022-09-14T17:16:25;5.13;;;2.63;;
32321;SDS011;61553;48.994;8.940;2022-09-14T17:18:53;3.67;;;1.90;;
32321;SDS011;61553;48.994;8.940;2022-09-14T17:21:28;4.63;;;2.30;;
32321;SDS011;61553;48.994;8.940;2022-09-14T17:23:56;5.80;;;2.30;;
32321;SDS011;61553;48.994;8.940;2022-09-14T17:26:22;4.43;;;2.38;;
32321;SDS011;61553;48.994;8.940;2022-09-14T17:28:48;4.28;;;2.20;;
32321;SDS011;61553;48.994;8.940;2022-09-14T17:31:17;7.15;;;2.35;;
32321;SDS011;61553;48.994;8.940;2022-09-14T17:33:44;5.88;;;1.90;;